createdAt,value
2023-07-20T00:00:28.231Z,84.50
2023-07-20T00:01:32.390Z,84.58
2023-07-20T00:02:35.151Z,84.50
2023-07-20T00:03:39.303Z,84.53
2023-07-20T00:04:42.001Z,84.69
2023-07-20T00:05:44.937Z,84.91
2023-07-20T00:06:48.964Z,84.98
2023-07-20T00:07:53.475Z,84.94
2023-07-20T00:08:57.380Z,84.55
2023-07-20T00:10:00.245Z,84.78
2023-07-20T00:11:05.575Z,84.81
2023-07-20T00:12:09.524Z,84.90
2023-07-20T00:13:14.358Z,84.69
2023-07-20T00:14:17.181Z,84.60
2023-07-20T00:15:21.024Z,84.57
2023-07-20T00:16:24.203Z,84.47
2023-07-20T00:17:28.175Z,84.40
2023-07-20T00:18:31.024Z,84.30
2023-07-20T00:19:34.827Z,84.11
2023-07-20T00:20:38.873Z,83.90
2023-07-20T00:21:43.850Z,83.91
2023-07-20T00:22:47.036Z,83.67
2023-07-20T00:23:50.808Z,83.86
2023-07-20T00:24:54.308Z,83.92
2023-07-20T00:25:58.544Z,83.69
2023-07-20T00:27:04.076Z,83.57
2023-07-20T00:28:08.311Z,83.36
2023-07-20T00:29:11.193Z,83.19
2023-07-20T00:30:15.796Z,83.17
2023-07-20T00:31:20.213Z,83.46
2023-07-20T00:32:24.180Z,83.30
2023-07-20T00:33:27.232Z,83.12
2023-07-20T00:34:31.026Z,82.95
2023-07-20T00:35:34.430Z,83.02
2023-07-20T00:36:38.237Z,83.29
2023-07-20T00:37:41.421Z,83.21
2023-07-20T00:38:45.683Z,83.04
2023-07-20T00:39:48.506Z,82.95
2023-07-20T00:40:52.234Z,82.93
2023-07-20T00:41:55.316Z,83.17
2023-07-20T00:43:00.534Z,83.24
2023-07-20T00:44:03.394Z,83.64
2023-07-20T00:45:08.626Z,83.71
2023-07-20T00:46:12.270Z,83.72
2023-07-20T00:47:16.914Z,83.92
2023-07-20T00:48:20.273Z,84.08
2023-07-20T00:49:25.212Z,83.92
2023-07-20T00:50:29.462Z,83.99
2023-07-20T00:51:32.354Z,84.09
2023-07-20T00:52:37.051Z,84.09
2023-07-20T00:53:40.126Z,83.86
2023-07-20T00:54:44.258Z,83.87
2023-07-20T00:55:47.149Z,84.15
2023-07-20T00:56:51.647Z,83.85
2023-07-20T00:57:54.783Z,84.02
2023-07-20T00:59:00.365Z,84.01
2023-07-20T01:00:05.167Z,83.84
2023-07-20T01:01:10.091Z,83.96
2023-07-20T01:02:12.891Z,83.79
2023-07-20T01:03:18.275Z,83.77
2023-07-20T01:04:22.637Z,83.62
2023-07-20T01:05:38.365Z,83.75
2023-07-20T01:07:18.186Z,83.51
2023-07-20T01:08:30.559Z,83.43
2023-07-20T01:09:41.120Z,83.24
2023-07-20T01:10:52.559Z,83.12
2023-07-20T01:12:04.828Z,82.85
2023-07-20T01:13:13.093Z,82.66
2023-07-20T01:14:18.623Z,82.78
2023-07-20T01:15:22.702Z,82.62
2023-07-20T01:16:26.279Z,82.40
2023-07-20T01:17:30.475Z,82.21
2023-07-20T01:18:33.236Z,82.03
2023-07-20T01:19:37.193Z,81.95
2023-07-20T01:20:39.944Z,81.86
2023-07-20T01:21:50.487Z,81.88
2023-07-20T01:23:12.611Z,81.95
2023-07-20T01:24:33.748Z,81.83
2023-07-20T01:25:55.417Z,81.50
2023-07-20T01:27:34.489Z,81.52
2023-07-20T01:28:48.008Z,81.45
2023-07-20T01:30:11.108Z,80.94
2023-07-20T01:31:21.957Z,80.99
2023-07-20T01:32:27.662Z,81.05
2023-07-20T01:33:33.770Z,80.80
2023-07-20T01:34:39.062Z,80.59
2023-07-20T01:35:58.079Z,80.32
2023-07-20T01:37:03.606Z,80.52
2023-07-20T01:38:07.764Z,80.15
2023-07-20T01:39:11.965Z,80.35
2023-07-20T01:40:16.377Z,80.18
2023-07-20T01:41:20.957Z,79.69
2023-07-20T01:42:24.632Z,79.48
2023-07-20T01:43:28.537Z,79.60
2023-07-20T01:44:31.139Z,79.14
2023-07-20T01:45:35.081Z,79.21
2023-07-20T01:46:39.953Z,79.21
2023-07-20T01:47:43.322Z,78.83
2023-07-20T01:48:47.576Z,78.57
2023-07-20T01:49:50.351Z,78.49
2023-07-20T01:50:54.056Z,78.59
2023-07-20T01:51:58.023Z,78.65
2023-07-20T01:53:01.911Z,78.50
2023-07-20T01:54:04.787Z,78.31
2023-07-20T01:55:08.594Z,77.81
2023-07-20T01:56:13.441Z,77.86
2023-07-20T01:57:16.541Z,78.13
2023-07-20T01:58:21.220Z,78.13
2023-07-20T01:59:23.930Z,78.08
2023-07-20T02:00:27.848Z,77.69
2023-07-20T02:01:30.644Z,77.75
2023-07-20T02:02:36.081Z,77.74
2023-07-20T02:03:38.848Z,77.56
2023-07-20T02:04:42.751Z,77.17
2023-07-20T02:05:45.553Z,77.09
2023-07-20T02:06:49.502Z,77.07
2023-07-20T02:07:52.398Z,77.21
2023-07-20T02:08:58.061Z,76.99
2023-07-20T02:10:00.781Z,77.24
2023-07-20T02:11:05.849Z,77.11
2023-07-20T02:12:09.426Z,76.86
2023-07-20T02:13:13.494Z,76.90
2023-07-20T02:14:16.306Z,76.74
2023-07-20T02:15:20.633Z,76.92
2023-07-20T02:16:23.648Z,77.01
2023-07-20T02:17:28.123Z,76.79
2023-07-20T02:18:32.359Z,76.82
2023-07-20T02:19:36.364Z,76.49
2023-07-20T02:20:39.089Z,76.74
2023-07-20T02:21:42.968Z,76.15
2023-07-20T02:22:45.787Z,76.31
2023-07-20T02:23:49.791Z,75.87
2023-07-20T02:24:52.530Z,75.89
2023-07-20T02:25:56.544Z,75.50
2023-07-20T02:26:59.315Z,75.64
2023-07-20T02:28:03.176Z,75.91
2023-07-20T02:29:06.280Z,75.59
2023-07-20T02:30:11.929Z,75.27
2023-07-20T02:31:14.792Z,75.01
2023-07-20T02:32:18.764Z,75.09
2023-07-20T02:33:22.079Z,75.22
2023-07-20T02:34:27.473Z,75.24
2023-07-20T02:35:30.478Z,75.02
2023-07-20T02:36:35.206Z,74.46
2023-07-20T02:37:38.382Z,74.32
2023-07-20T02:38:42.244Z,73.72
2023-07-20T02:39:45.044Z,74.15
2023-07-20T02:40:49.615Z,73.91
2023-07-20T02:41:52.223Z,73.72
2023-07-20T02:42:56.186Z,73.37
2023-07-20T02:43:58.893Z,73.12
2023-07-20T02:45:02.663Z,72.70
2023-07-20T02:46:05.802Z,72.76
2023-07-20T02:47:10.899Z,72.53
2023-07-20T02:48:13.661Z,72.75
2023-07-20T02:49:18.434Z,72.45
2023-07-20T02:50:23.222Z,71.91
2023-07-20T02:51:27.182Z,72.31
2023-07-20T02:52:31.382Z,72.62
2023-07-20T02:53:35.281Z,72.58
2023-07-20T02:54:38.070Z,72.14
2023-07-20T02:55:42.079Z,72.69
2023-07-20T02:56:44.940Z,71.96
2023-07-20T02:57:48.860Z,71.87
2023-07-20T02:58:51.923Z,72.07
2023-07-20T02:59:56.515Z,71.66
2023-07-20T03:00:59.249Z,71.66
2023-07-20T03:02:03.406Z,71.46
2023-07-20T03:03:10.939Z,71.88
2023-07-20T03:04:15.267Z,71.95
2023-07-20T03:05:18.332Z,71.63
2023-07-20T03:06:23.816Z,71.16
2023-07-20T03:07:28.546Z,71.18
2023-07-20T03:08:32.579Z,71.11
2023-07-20T03:09:35.257Z,70.73
2023-07-20T03:10:43.037Z,71.32
2023-07-20T03:11:46.084Z,70.61
2023-07-20T03:12:50.326Z,70.66
2023-07-20T03:13:52.976Z,70.79
2023-07-20T03:14:58.381Z,70.57
2023-07-20T03:16:02.101Z,70.38
2023-07-20T03:17:07.280Z,70.51
2023-07-20T03:18:10.169Z,70.08
2023-07-20T03:19:14.136Z,70.09
2023-07-20T03:20:18.021Z,69.74
2023-07-20T03:21:23.575Z,69.99
2023-07-20T03:22:26.273Z,69.99
2023-07-20T03:23:30.171Z,69.82
2023-07-20T03:24:33.057Z,69.59
2023-07-20T03:25:38.771Z,69.94
2023-07-20T03:26:41.613Z,69.79
2023-07-20T03:27:44.940Z,69.43
2023-07-20T03:28:48.875Z,69.89
2023-07-20T03:29:51.718Z,69.78
2023-07-20T03:30:58.969Z,70.03
2023-07-20T03:32:03.333Z,69.39
2023-07-20T03:33:07.127Z,69.12
2023-07-20T03:34:10.374Z,69.05
2023-07-20T03:35:14.525Z,69.24
2023-07-20T03:36:18.406Z,69.46
2023-07-20T03:37:22.914Z,69.47
2023-07-20T03:38:27.616Z,69.64
2023-07-20T03:39:31.044Z,69.18
2023-07-20T03:40:34.911Z,69.21
2023-07-20T03:41:38.492Z,69.55
2023-07-20T03:42:42.917Z,69.27
2023-07-20T03:43:45.620Z,69.69
2023-07-20T03:44:49.599Z,69.32
2023-07-20T03:45:52.739Z,69.48
2023-07-20T03:46:57.044Z,69.69
2023-07-20T03:47:59.870Z,69.41
2023-07-20T03:49:04.771Z,69.00
2023-07-20T03:50:11.234Z,68.77
2023-07-20T03:51:15.617Z,68.68
2023-07-20T03:52:18.413Z,68.64
2023-07-20T03:53:23.936Z,68.32
2023-07-20T03:54:26.735Z,68.24
2023-07-20T03:55:30.810Z,68.61
2023-07-20T03:56:36.723Z,68.97
2023-07-20T03:57:40.844Z,68.41
2023-07-20T03:58:43.549Z,68.91
2023-07-20T03:59:48.579Z,68.67
2023-07-20T04:00:52.529Z,69.17
2023-07-20T04:01:56.606Z,68.81
2023-07-20T04:03:00.448Z,67.66
2023-07-20T04:04:04.345Z,68.34
2023-07-20T04:05:07.725Z,68.36
2023-07-20T04:06:11.885Z,67.80
2023-07-20T04:07:14.605Z,68.13
2023-07-20T04:08:20.468Z,68.11
2023-07-20T04:09:24.633Z,67.74
2023-07-20T04:10:28.556Z,67.41
2023-07-20T04:11:31.330Z,66.92
2023-07-20T04:12:35.220Z,67.24
2023-07-20T04:13:38.018Z,66.75
2023-07-20T04:14:41.924Z,66.86
2023-07-20T04:15:44.987Z,66.29
2023-07-20T04:16:49.438Z,66.08
2023-07-20T04:17:52.224Z,66.16
2023-07-20T04:18:57.838Z,65.95
2023-07-20T04:20:00.515Z,65.92
2023-07-20T04:21:04.499Z,65.88
2023-07-20T04:22:08.162Z,65.61
2023-07-20T04:23:12.107Z,65.25
2023-07-20T04:24:15.064Z,65.13
2023-07-20T04:25:21.107Z,65.19
2023-07-20T04:26:24.339Z,65.28
2023-07-20T04:27:28.679Z,65.40
2023-07-20T04:28:32.478Z,65.55
2023-07-20T04:29:36.463Z,64.97
2023-07-20T04:30:40.994Z,64.90
2023-07-20T04:31:45.189Z,64.82
2023-07-20T04:32:48.296Z,64.74
2023-07-20T04:33:52.612Z,64.89
2023-07-20T04:34:55.518Z,65.03
2023-07-20T04:35:59.348Z,65.12
2023-07-20T04:37:10.346Z,64.78
2023-07-20T04:38:14.584Z,64.75
2023-07-20T04:39:30.006Z,64.58
2023-07-20T04:40:40.033Z,64.65
2023-07-20T04:41:42.866Z,65.07
2023-07-20T04:42:46.813Z,64.91
2023-07-20T04:43:49.628Z,64.76
2023-07-20T04:45:00.637Z,64.22
2023-07-20T04:46:03.459Z,64.32
2023-07-20T04:47:11.038Z,64.05
2023-07-20T04:48:16.938Z,64.01
2023-07-20T04:49:29.593Z,63.50
2023-07-20T04:50:32.886Z,63.44
2023-07-20T04:51:36.798Z,63.39
2023-07-20T04:52:43.126Z,63.60
2023-07-20T04:53:52.033Z,63.10
2023-07-20T04:54:54.971Z,63.02
2023-07-20T04:56:00.617Z,62.30
2023-07-20T04:57:03.529Z,61.95
2023-07-20T04:58:08.294Z,62.01
2023-07-20T04:59:12.970Z,61.63
2023-07-20T05:00:18.674Z,61.62
2023-07-20T05:01:21.537Z,61.46
2023-07-20T05:02:25.370Z,61.70
2023-07-20T05:03:28.390Z,61.08
2023-07-20T05:04:38.608Z,60.62
2023-07-20T05:05:42.972Z,61.21
2023-07-20T05:06:48.014Z,60.71
2023-07-20T05:07:50.738Z,60.60
2023-07-20T05:08:54.670Z,60.54
2023-07-20T05:09:57.672Z,59.84
2023-07-20T05:11:04.734Z,60.40
2023-07-20T05:12:08.851Z,60.15
2023-07-20T05:13:13.122Z,60.47
2023-07-20T05:14:15.819Z,59.87
2023-07-20T05:15:19.938Z,59.81
2023-07-20T05:16:23.260Z,59.90
2023-07-20T05:17:27.775Z,58.89
2023-07-20T05:18:30.618Z,59.33
2023-07-20T05:19:34.576Z,58.72
2023-07-20T05:20:38.508Z,58.39
2023-07-20T05:21:42.682Z,58.45
2023-07-20T05:22:46.082Z,58.26
2023-07-20T05:23:49.958Z,58.09
2023-07-20T05:24:52.645Z,58.43
2023-07-20T05:25:59.599Z,58.01
2023-07-20T05:27:04.881Z,58.58
2023-07-20T05:28:08.808Z,58.31
2023-07-20T05:29:11.501Z,58.71
2023-07-20T05:30:15.427Z,58.70
2023-07-20T05:31:18.319Z,58.81
2023-07-20T05:32:22.701Z,58.11
2023-07-20T05:33:25.410Z,57.87
2023-07-20T05:34:29.332Z,57.05
2023-07-20T05:35:32.107Z,57.20
2023-07-20T05:36:36.142Z,57.10
2023-07-20T05:37:39.700Z,56.97
2023-07-20T05:38:43.770Z,55.58
2023-07-20T05:39:46.387Z,55.72
2023-07-20T05:40:50.185Z,55.43
2023-07-20T05:41:53.202Z,55.88
2023-07-20T05:42:58.568Z,55.71
2023-07-20T05:44:01.354Z,55.27
2023-07-20T05:45:06.206Z,55.34
2023-07-20T05:46:08.814Z,55.13
2023-07-20T05:47:13.374Z,54.13
2023-07-20T05:48:18.236Z,53.82
2023-07-20T05:49:22.072Z,54.22
2023-07-20T05:50:24.776Z,54.24
2023-07-20T05:51:29.074Z,53.64
2023-07-20T05:52:31.749Z,54.06
2023-07-20T05:53:35.858Z,54.57
2023-07-20T05:54:38.630Z,54.44
2023-07-20T05:55:42.600Z,53.80
2023-07-20T05:56:45.377Z,53.63
2023-07-20T05:57:49.892Z,53.25
2023-07-20T05:58:54.206Z,53.05
2023-07-20T05:59:58.502Z,53.41
2023-07-20T06:01:01.471Z,53.98
2023-07-20T06:02:05.688Z,53.92
2023-07-20T06:03:08.330Z,53.41
2023-07-20T06:04:12.332Z,53.56
2023-07-20T06:05:15.119Z,53.20
2023-07-20T06:06:19.130Z,53.12
2023-07-20T06:07:21.799Z,53.99
2023-07-20T06:08:25.727Z,53.96
2023-07-20T06:09:29.165Z,53.57
2023-07-20T06:10:33.180Z,54.31
2023-07-20T06:11:35.985Z,53.82
2023-07-20T06:12:39.960Z,52.94
2023-07-20T06:13:42.638Z,52.63
2023-07-20T06:14:48.024Z,53.34
2023-07-20T06:15:50.951Z,53.65
2023-07-20T06:16:55.153Z,53.63
2023-07-20T06:17:59.543Z,54.29
2023-07-20T06:19:03.720Z,53.36
2023-07-20T06:20:08.706Z,53.29
2023-07-20T06:21:12.529Z,52.67
2023-07-20T06:22:15.476Z,53.04
2023-07-20T06:23:19.383Z,53.18
2023-07-20T06:24:22.127Z,53.71
2023-07-20T06:25:26.250Z,53.51
2023-07-20T06:26:30.046Z,53.52
2023-07-20T06:27:33.899Z,52.84
2023-07-20T06:28:37.895Z,52.61
2023-07-20T06:29:41.824Z,53.04
2023-07-20T06:30:46.085Z,53.11
2023-07-20T06:31:50.174Z,53.11
2023-07-20T06:32:53.491Z,51.65
2023-07-20T06:33:57.431Z,51.23
2023-07-20T06:35:00.447Z,51.57
2023-07-20T06:36:04.614Z,50.60
2023-07-20T06:37:07.284Z,50.79
2023-07-20T06:44:49.594Z,50.95
2023-07-20T06:45:56.616Z,50.43
2023-07-20T06:47:00.675Z,50.65
2023-07-20T06:48:04.856Z,50.55
2023-07-20T06:50:18.174Z,50.22
2023-07-20T06:51:21.997Z,49.56
2023-07-20T06:52:26.604Z,48.97
2023-07-20T06:53:29.710Z,48.96
2023-07-20T06:54:35.810Z,49.34
2023-07-20T06:55:41.170Z,49.61
2023-07-20T06:56:47.134Z,49.39
2023-07-20T06:59:13.192Z,48.37
2023-07-20T07:00:16.802Z,48.51
2023-07-20T07:01:24.002Z,48.29
2023-07-20T07:02:27.498Z,48.57
2023-07-20T07:04:40.001Z,48.47
2023-07-20T07:05:44.035Z,48.79
2023-07-20T07:06:46.879Z,49.33
2023-07-20T07:07:51.303Z,49.40
2023-07-20T07:08:54.399Z,48.34
2023-07-20T07:09:58.278Z,48.29
2023-07-20T07:11:01.194Z,48.17
2023-07-20T07:12:05.206Z,47.04
2023-07-20T07:13:07.956Z,46.88
2023-07-20T07:14:11.826Z,47.15
2023-07-20T07:15:14.651Z,47.37
2023-07-20T07:16:21.226Z,47.85
2023-07-20T07:17:25.977Z,47.86
2023-07-20T07:18:31.389Z,48.08
2023-07-20T07:19:34.521Z,47.79
2023-07-20T07:20:38.391Z,47.79
2023-07-20T07:21:41.152Z,47.89
2023-07-20T07:22:46.752Z,47.36
2023-07-20T07:23:50.990Z,47.37
2023-07-20T07:24:55.369Z,47.02
2023-07-20T07:25:58.241Z,46.41
2023-07-20T07:27:02.306Z,46.55
2023-07-20T07:28:05.445Z,45.86
2023-07-20T07:29:09.165Z,45.57
2023-07-20T07:30:13.530Z,46.46
2023-07-20T07:31:17.282Z,46.39
2023-07-20T07:32:20.006Z,46.77
2023-07-20T07:33:25.428Z,46.94
2023-07-20T07:34:28.347Z,46.66
2023-07-20T07:35:32.347Z,46.59
2023-07-20T07:36:35.463Z,46.63
2023-07-20T07:37:52.193Z,45.94
2023-07-20T07:39:27.901Z,46.07
2023-07-20T07:40:24.236Z,46.26
2023-07-20T07:41:27.113Z,45.77
2023-07-20T07:42:31.972Z,45.79
2023-07-20T07:43:36.332Z,46.30
2023-07-20T07:44:40.140Z,46.81
2023-07-20T07:45:42.922Z,46.55
2023-07-20T07:46:46.800Z,46.86
2023-07-20T07:47:50.455Z,46.88
2023-07-20T07:48:55.967Z,46.27
2023-07-20T07:49:58.931Z,45.70
2023-07-20T07:51:02.699Z,45.71
2023-07-20T07:52:06.353Z,45.58
2023-07-20T07:53:11.130Z,45.34
2023-07-20T07:54:13.871Z,45.64
2023-07-20T07:55:19.304Z,45.09
2023-07-20T07:56:24.847Z,45.79
2023-07-20T07:57:29.383Z,45.36
2023-07-20T07:58:32.779Z,45.78
2023-07-20T07:59:39.032Z,45.30
2023-07-20T08:00:41.841Z,44.71
2023-07-20T08:01:47.388Z,44.62
2023-07-20T08:02:52.021Z,45.05
2023-07-20T08:03:57.552Z,44.69
2023-07-20T08:05:02.254Z,45.24
2023-07-20T08:06:06.895Z,44.99
2023-07-20T08:07:09.869Z,44.87
2023-07-20T08:08:14.048Z,43.89
2023-07-20T08:09:17.043Z,43.82
2023-07-20T08:10:21.179Z,43.21
2023-07-20T08:11:25.861Z,43.78
2023-07-20T08:12:29.725Z,44.11
2023-07-20T08:13:33.229Z,44.40
2023-07-20T08:14:36.880Z,44.32
2023-07-20T08:15:39.515Z,43.96
2023-07-20T08:16:44.616Z,44.13
2023-07-20T08:17:47.619Z,44.30
2023-07-20T08:18:52.069Z,44.50
2023-07-20T08:19:56.718Z,44.51
2023-07-20T08:21:00.666Z,44.05
2023-07-20T08:22:04.173Z,44.13
2023-07-20T08:23:08.174Z,44.44
2023-07-20T08:24:10.902Z,44.49
2023-07-20T08:25:14.922Z,43.35
2023-07-20T08:26:17.663Z,44.02
2023-07-20T08:27:21.649Z,43.89
2023-07-20T08:28:24.273Z,42.99
2023-07-20T08:29:28.068Z,42.59
2023-07-20T08:30:42.108Z,42.84
2023-07-20T08:31:47.259Z,43.36
2023-07-20T08:32:49.993Z,43.68
2023-07-20T08:33:54.117Z,43.81
2023-07-20T08:34:58.227Z,43.17
2023-07-20T08:36:02.423Z,42.92
2023-07-20T08:37:06.737Z,42.77
2023-07-20T08:38:09.538Z,42.91
2023-07-20T08:39:13.246Z,42.43
2023-07-20T08:40:16.240Z,42.10
2023-07-20T08:41:21.834Z,41.95
2023-07-20T08:42:24.852Z,42.30
2023-07-20T08:43:29.704Z,41.95
2023-07-20T08:44:34.904Z,41.81
2023-07-20T08:45:40.937Z,42.33
2023-07-20T08:46:45.463Z,42.54
2023-07-20T08:47:51.444Z,42.77
2023-07-20T08:48:54.461Z,43.11
2023-07-20T08:50:01.710Z,42.80
2023-07-20T08:51:06.200Z,42.85
2023-07-20T08:52:11.073Z,42.36
2023-07-20T08:53:14.540Z,42.36
2023-07-20T08:54:19.330Z,42.43
2023-07-20T08:55:23.599Z,42.42
2023-07-20T08:56:28.588Z,42.70
2023-07-20T08:57:34.714Z,42.83
2023-07-20T08:58:39.081Z,43.04
2023-07-20T08:59:42.903Z,43.54
2023-07-20T09:00:47.368Z,44.14
2023-07-20T09:01:50.890Z,44.18
2023-07-20T09:02:56.890Z,43.48
2023-07-20T09:03:59.648Z,43.01
2023-07-20T09:05:06.027Z,43.48
2023-07-20T09:06:09.230Z,44.04
2023-07-20T09:07:14.055Z,43.95
2023-07-20T09:08:16.880Z,44.53
2023-07-20T09:09:20.911Z,44.57
2023-07-20T09:10:25.610Z,44.35
2023-07-20T09:11:29.608Z,44.58
2023-07-20T09:12:33.258Z,43.35
2023-07-20T09:13:38.238Z,43.44
2023-07-20T09:14:40.960Z,43.15
2023-07-20T09:15:49.420Z,42.10
2023-07-20T09:16:54.738Z,42.01
2023-07-20T09:17:58.753Z,42.43
2023-07-20T09:19:01.752Z,42.75
2023-07-20T09:20:09.580Z,43.47
2023-07-20T09:21:12.261Z,42.86
2023-07-20T09:22:15.150Z,42.41
2023-07-20T09:23:19.604Z,42.41
2023-07-20T09:24:23.717Z,42.13
2023-07-20T09:25:31.607Z,42.42
2023-07-20T09:26:43.296Z,42.26
2023-07-20T09:27:49.347Z,42.88
2023-07-20T09:28:54.739Z,43.40
2023-07-20T09:29:59.687Z,45.06
2023-07-20T09:31:17.763Z,45.05
2023-07-20T09:32:26.166Z,44.65
2023-07-20T09:33:29.367Z,45.65
2023-07-20T09:35:43.522Z,45.54
2023-07-20T09:39:05.630Z,46.02
2023-07-20T09:43:33.432Z,45.57
2023-07-20T09:51:26.237Z,42.32
2023-07-20T09:53:39.063Z,42.32
2023-07-20T09:54:43.764Z,42.13
2023-07-20T09:55:47.582Z,42.62
2023-07-20T09:56:53.333Z,42.02
2023-07-20T09:57:57.769Z,41.90
2023-07-20T09:59:01.787Z,41.75
2023-07-20T10:01:24.199Z,41.32
2023-07-20T10:02:35.716Z,41.49
2023-07-20T10:03:40.218Z,41.92
2023-07-20T10:04:45.869Z,42.01
2023-07-20T10:05:54.278Z,41.74
2023-07-20T10:07:07.276Z,41.04
2023-07-20T10:09:21.584Z,40.10
2023-07-20T10:10:24.640Z,40.87
2023-07-20T10:11:32.630Z,41.50
2023-07-20T10:12:36.585Z,41.18
2023-07-20T10:13:41.665Z,40.76
2023-07-20T10:14:51.578Z,40.58
2023-07-20T10:15:57.586Z,39.87
2023-07-20T10:17:05.346Z,40.13
2023-07-20T10:18:15.122Z,42.03
2023-07-20T10:19:22.330Z,43.75
2023-07-20T10:20:25.380Z,44.93
2023-07-20T10:22:42.672Z,46.95
2023-07-20T10:23:47.959Z,47.34
2023-07-20T10:24:51.625Z,47.53
2023-07-20T10:25:56.314Z,49.02
2023-07-20T10:26:59.760Z,50.07
2023-07-20T10:28:03.639Z,49.24
2023-07-20T10:29:07.191Z,48.40
2023-07-20T10:30:11.832Z,46.46
2023-07-20T10:31:16.938Z,45.83
2023-07-20T10:32:22.496Z,45.61
2023-07-20T10:33:26.060Z,46.44
2023-07-20T10:34:31.053Z,46.37
2023-07-20T10:35:54.010Z,46.00
2023-07-20T10:36:57.959Z,46.49
2023-07-20T10:38:05.692Z,45.87
2023-07-20T10:39:26.146Z,44.67
2023-07-20T10:40:31.956Z,45.35
2023-07-20T10:41:37.886Z,45.42
2023-07-20T10:42:40.728Z,45.27
2023-07-20T10:43:45.696Z,44.76
2023-07-20T10:44:49.001Z,44.73
2023-07-20T10:45:53.274Z,44.55
2023-07-20T10:47:01.599Z,44.89
2023-07-20T10:48:06.224Z,44.23
2023-07-20T10:49:12.258Z,44.35
2023-07-20T10:50:15.260Z,43.57
2023-07-20T10:51:23.385Z,43.97
2023-07-20T10:52:26.251Z,43.03
2023-07-20T10:53:31.882Z,42.37
2023-07-20T10:54:52.468Z,42.81
2023-07-20T10:56:09.608Z,42.04
2023-07-20T10:57:24.920Z,41.68
2023-07-20T10:58:30.095Z,41.55
2023-07-20T10:59:40.026Z,41.72
2023-07-20T11:01:07.966Z,41.37
2023-07-20T11:02:11.212Z,41.31
2023-07-20T11:03:30.711Z,41.31
2023-07-20T11:04:40.727Z,41.56
2023-07-20T11:05:44.879Z,41.17
2023-07-20T11:06:48.161Z,41.14
2023-07-20T11:07:52.090Z,41.36
2023-07-20T11:09:06.301Z,40.97
2023-07-20T11:10:20.162Z,40.93
2023-07-20T11:11:24.304Z,40.90
2023-07-20T11:12:28.601Z,41.04
2023-07-20T11:13:33.089Z,40.96
2023-07-20T11:14:36.894Z,41.66
2023-07-20T11:16:02.792Z,41.76
2023-07-20T11:17:14.916Z,41.29
2023-07-20T11:18:17.605Z,41.08
2023-07-20T11:20:31.455Z,40.20
2023-07-20T11:21:45.183Z,40.41
2023-07-20T11:22:58.881Z,40.74
2023-07-20T11:24:06.164Z,40.67
2023-07-20T11:25:12.089Z,40.82
2023-07-20T11:26:17.071Z,39.74
2023-07-20T11:27:23.639Z,40.36
2023-07-20T11:28:27.536Z,40.96
2023-07-20T11:29:34.190Z,40.05
2023-07-20T11:30:39.985Z,41.12
2023-07-20T11:31:44.060Z,41.87
2023-07-20T11:32:50.956Z,42.58
2023-07-20T11:33:53.611Z,42.80
2023-07-20T11:34:57.543Z,43.86
2023-07-20T11:36:00.339Z,44.67
2023-07-20T11:38:10.894Z,46.59
2023-07-20T11:39:16.386Z,47.25
2023-07-20T11:40:20.270Z,47.56
2023-07-20T11:41:24.154Z,47.84
2023-07-20T11:43:33.982Z,45.35
2023-07-20T11:44:38.285Z,45.46
2023-07-20T11:45:41.366Z,45.57
2023-07-20T11:46:45.765Z,47.16
2023-07-20T11:47:48.718Z,46.69
2023-07-20T11:48:59.265Z,46.26
2023-07-20T11:50:05.411Z,46.03
2023-07-20T11:51:16.767Z,47.49
2023-07-20T11:52:20.120Z,46.16
2023-07-20T11:53:23.950Z,46.36
2023-07-20T11:54:29.400Z,46.21
2023-07-20T11:55:34.228Z,46.97
2023-07-20T11:56:37.112Z,47.15
2023-07-20T11:57:41.249Z,47.84
2023-07-20T11:58:45.459Z,48.09
2023-07-20T12:00:00.935Z,49.03
2023-07-20T12:01:05.874Z,51.28
2023-07-20T12:02:10.071Z,52.24
2023-07-20T12:03:14.181Z,56.31
2023-07-20T12:04:18.075Z,56.05
2023-07-20T12:05:21.170Z,55.47
2023-07-20T12:06:29.340Z,56.14
2023-07-20T12:07:38.132Z,56.12
2023-07-20T12:08:43.336Z,56.74
2023-07-20T12:10:04.775Z,56.38
2023-07-20T12:11:08.868Z,56.58
2023-07-20T12:12:13.288Z,55.08
2023-07-20T12:13:16.992Z,54.03
2023-07-20T12:14:20.222Z,54.58
2023-07-20T12:15:25.676Z,54.33
2023-07-20T12:16:29.837Z,54.76
2023-07-20T12:17:37.552Z,53.76
2023-07-20T12:18:40.708Z,53.68
2023-07-20T12:19:44.556Z,53.94
2023-07-20T12:20:47.445Z,55.35
2023-07-20T12:21:51.089Z,55.63
2023-07-20T12:22:54.446Z,56.07
2023-07-20T12:23:59.723Z,54.64
2023-07-20T12:25:07.694Z,56.41
2023-07-20T12:26:12.660Z,54.54
2023-07-20T12:27:19.405Z,55.31
2023-07-20T12:28:22.322Z,55.16
2023-07-20T12:29:26.252Z,54.44
2023-07-20T12:30:29.843Z,54.04
2023-07-20T12:31:35.706Z,52.45
2023-07-20T12:32:39.564Z,53.83
2023-07-20T12:33:42.521Z,53.22
2023-07-20T12:34:46.203Z,52.28
2023-07-20T12:35:49.092Z,52.71
2023-07-20T12:36:52.811Z,53.38
2023-07-20T12:37:55.614Z,52.75
2023-07-20T12:38:59.748Z,53.90
2023-07-20T12:40:05.241Z,54.13
2023-07-20T12:41:09.024Z,54.63
2023-07-20T12:42:11.945Z,53.69
2023-07-20T12:43:15.681Z,54.43
2023-07-20T12:44:18.373Z,53.60
2023-07-20T12:45:22.571Z,52.86
2023-07-20T12:46:26.190Z,52.49
2023-07-20T12:47:30.176Z,54.24
2023-07-20T12:48:33.332Z,54.96
2023-07-20T12:49:37.029Z,55.15
2023-07-20T12:50:39.796Z,55.13
2023-07-20T12:51:43.772Z,53.41
2023-07-20T12:52:46.491Z,53.33
2023-07-20T12:53:50.180Z,52.14
2023-07-20T12:54:53.754Z,51.72
2023-07-20T12:55:58.904Z,51.92
2023-07-20T12:58:09.109Z,52.16
2023-07-20T12:59:11.884Z,51.96
2023-07-20T13:00:17.849Z,51.78
2023-07-20T13:01:20.787Z,51.06
2023-07-20T13:02:24.809Z,50.85
2023-07-20T13:03:30.985Z,50.16
2023-07-20T13:04:36.100Z,49.23
2023-07-20T13:06:45.407Z,49.73
2023-07-20T13:08:57.919Z,48.89
2023-07-20T13:10:01.650Z,48.73
2023-07-20T13:11:07.514Z,47.33
2023-07-20T13:12:10.907Z,47.47
2023-07-20T13:13:14.712Z,47.09
2023-07-20T13:14:17.617Z,46.95
2023-07-20T13:15:21.468Z,45.07
2023-07-20T13:16:24.428Z,44.48
2023-07-20T13:17:28.837Z,44.71
2023-07-20T13:18:31.874Z,44.17
2023-07-20T13:19:35.640Z,43.21
2023-07-20T13:20:38.992Z,43.29
2023-07-20T13:21:42.812Z,43.46
2023-07-20T13:22:45.582Z,42.69
2023-07-20T13:23:49.468Z,41.78
2023-07-20T13:24:52.657Z,41.81
2023-07-20T13:25:56.471Z,41.67
2023-07-20T13:27:00.733Z,41.41
2023-07-20T13:28:04.513Z,41.82
2023-07-20T13:29:07.367Z,41.63
2023-07-20T13:30:17.787Z,41.39
2023-07-20T13:31:24.480Z,41.84
2023-07-20T13:32:31.866Z,42.12
2023-07-20T13:33:39.744Z,42.95
2023-07-20T13:34:44.760Z,42.62
2023-07-20T13:35:50.164Z,43.12
2023-07-20T13:36:54.136Z,43.62
2023-07-20T13:37:58.061Z,43.44
2023-07-20T13:39:01.840Z,44.04
2023-07-20T13:40:07.612Z,44.16
2023-07-20T13:41:11.389Z,44.27
2023-07-20T13:42:16.563Z,44.42
2023-07-20T13:43:21.250Z,45.40
2023-07-20T13:44:24.107Z,45.70
2023-07-20T13:45:27.964Z,46.11
2023-07-20T13:47:37.742Z,47.40
2023-07-20T13:48:41.106Z,47.53
2023-07-20T13:49:48.087Z,47.72
2023-07-20T13:55:17.145Z,48.06
2023-07-20T13:56:42.748Z,47.84
2023-07-20T13:57:47.863Z,47.67
2023-07-20T13:58:51.588Z,47.58
2023-07-20T13:59:54.580Z,48.26
2023-07-20T14:00:58.341Z,47.55
2023-07-20T14:04:13.769Z,48.21
2023-07-20T14:06:25.383Z,48.12
2023-07-20T14:07:30.530Z,48.76
2023-07-20T14:08:33.752Z,49.22
2023-07-20T14:09:37.836Z,49.25
2023-07-20T14:12:54.595Z,48.80
2023-07-20T14:13:59.710Z,49.04
2023-07-20T14:15:06.140Z,49.43
2023-07-20T14:16:09.520Z,48.68
2023-07-20T14:17:13.154Z,48.24
2023-07-20T14:18:17.785Z,47.70
2023-07-20T14:19:23.134Z,47.33
2023-07-20T14:20:25.791Z,46.79
2023-07-20T14:21:32.134Z,46.70
2023-07-20T14:22:35.156Z,46.78
2023-07-20T14:23:39.047Z,46.79
2023-07-20T14:24:41.819Z,46.61
2023-07-20T14:25:45.727Z,46.10
2023-07-20T14:26:52.378Z,46.15
2023-07-20T14:27:57.901Z,45.91
2023-07-20T14:29:00.639Z,45.32
2023-07-20T14:30:04.981Z,45.45
2023-07-20T14:31:07.988Z,45.82
2023-07-20T14:32:12.778Z,45.41
2023-07-20T14:33:15.798Z,46.42
2023-07-20T14:34:20.307Z,46.06
2023-07-20T14:35:23.668Z,46.08
2023-07-20T14:36:30.258Z,46.23
2023-07-20T14:37:34.690Z,46.03
2023-07-20T14:38:38.539Z,46.16
2023-07-20T14:39:41.262Z,45.99
2023-07-20T14:40:46.260Z,46.07
2023-07-20T14:41:49.518Z,45.88
2023-07-20T14:42:54.203Z,46.12